Huvudsida
METAR-TAF:

METAR-TAF

Flygplatser :

Altenstadt, Tyskland

latitud: 47-50N, longitud: 010-52E, höjd: 739 m

Aktuellt väderrapport

Denna rapport gjordes för 54 minuter sedan, klockan 20:20 UTC
Vind 19 kt från väst
Temperatur 7°C
Fuktighet 70%
Tryck 1005 hPa

METAR: ETHA 142020Z AUTO 27019KT //// // ////// 07/02 Q1005 ///

Tid: 22:14 (21:14 UTC)


TAF: saknas

Aktuella väderrapporter och prognoser från 4000 flygplatser (METAR- och TAF-rapporter).

De tillgängliga stationerna syns som gula och röda prickar på kartan.

För musen över prickarna för att se namnen på stationerna.

Klicka sedan för att få väderrapporter och prognoser.

För att ändra kartan: Klicka på de gröna knapparna med ett svart kors på för att zooma in; den gröna knappen med ett streck på för att zooma ut; eller på de gröna pilarna för angränsande kartor.


METAR-TAF: